Time;durP1;ratioP1;P1;durP2;ratioP2;P2;SDS_P1;SDS_P2;PMS_P1;PMS_P2;Temp;Humidity;BMP_temperature;BMP_pressure;BME280_temperature;BME280_humidity;BME280_pressure;Samples;Min_cycle;Max_cycle;Signal;HPM_P1;HPM_P2
2021/12/11 00:00:07;;;;;;;;;;;;;;;-4.19;100.00;100442.94;1030506;28;19952;-74
2021/12/11 00:00:41;;;;;;;;;;;;;;;-4.21;100.00;100439.63;1030361;28;19925;-74
2021/12/11 00:01:18;;;;;;;;;;;;;;;-4.19;100.00;100437.72;1031778;28;20165;-74
2021/12/11 00:01:55;;;;;;;;;;;;;;;-4.21;100.00;100431.84;1029755;28;19929;-74
2021/12/11 00:02:29;;;;;;;;;;;;;;;-4.21;100.00;100450.03;1027107;28;19921;-74
2021/12/11 00:03:08;;;;;;;;;;;;;;;-4.22;100.00;100440.59;1030630;28;19949;-74
2021/12/11 00:03:41;;;;;;;;;;;;;;;-4.20;100.00;100441.28;1028721;28;19922;-74
2021/12/11 00:04:14;;;;;;;;;;;;;;;-4.20;100.00;100441.28;1033561;28;19925;-74
2021/12/11 00:04:47;;;;;;;;;;;;;;;-4.19;100.00;100442.94;1035909;28;19921;-74
2021/12/11 00:05:19;;;;;;;;;;;;;;;-4.18;100.00;100444.56;1035556;28;19921;-74
2021/12/11 00:05:52;;;;;;;;;;;;;;;-4.16;100.00;100445.25;1033552;28;19922;-74
2021/12/11 00:06:31;;;;;;;;;;;;;;;-4.15;100.00;100444.31;1032029;28;19928;-74
2021/12/11 00:07:03;;;;;;;;;;;;;;;-4.13;100.00;100447.59;1033739;28;19921;-74
2021/12/11 00:07:35;;;;;;;;;;;;;;;-4.12;100.00;100449.25;1035854;28;20058;-75
2021/12/11 00:08:08;;;;;;;;;;;;;;;-4.12;100.00;100451.84;1035736;28;19922;-74
2021/12/11 00:08:40;;;;;;;;;;;;;;;-4.12;100.00;100446.63;1035780;28;21296;-74
2021/12/11 00:09:17;;;;;;;;;;;;;;;-4.14;100.00;100451.16;1035682;28;19921;-74
2021/12/11 00:09:55;;;;;;;;;;;;;;;-4.16;100.00;100445.25;1027927;28;19922;-74
2021/12/11 00:10:32;;;;;;;;;;;;;;;-4.15;100.00;100449.50;1029412;28;19921;-75
2021/12/11 00:11:08;;;;;;;;;;;;;;;-4.14;100.00;100450.31;1027847;28;19929;-74
2021/12/11 00:11:41;;;;;;;;;;;;;;;-4.11;100.00;100452.66;1033008;28;20283;-74
2021/12/11 00:12:23;;;;;;;;;;;;;;;-4.09;100.00;100453.38;1031621;28;19921;-73
2021/12/11 00:13:00;;;;;;;;;;;;;;;-4.09;100.00;100456.81;1034245;28;19921;-73
2021/12/11 00:13:32;;;;;;;;;;;;;;;-4.06;100.00;100453.94;1035903;28;19932;-74
2021/12/11 00:14:04;;;;;;;;;;;;;;;-4.05;100.00;100463.38;1036187;28;19921;-74
2021/12/11 00:14:37;;;;;;;;;;;;;;;-4.07;100.00;100462.69;1032750;28;20034;-75
2021/12/11 00:15:10;;;;;;;;;;;;;;;-4.07;100.00;100465.31;1031700;28;19934;-73
2021/12/11 00:15:44;;;;;;;;;;;;;;;-4.03;100.00;100472.84;1032067;28;20391;-72
2021/12/11 00:16:17;;;;;;;;;;;;;;;-4.06;100.00;100479.13;1032174;28;19921;-75
2021/12/11 00:16:49;;;;;;;;;;;;;;;-4.01;100.00;100466.53;1033968;28;19921;-75
2021/12/11 00:17:22;;;;;;;;;;;;;;;-3.96;100.00;100473.94;1032774;28;19933;-75
2021/12/11 00:17:58;;;;;;;;;;;;;;;-3.98;100.00;100474.09;1032045;28;19922;-75
2021/12/11 00:18:29;;;;;;;;;;;;;;;-3.98;100.00;100470.66;1028003;28;20395;-73
2021/12/11 00:19:05;;;;;;;;;;;;;;;-4.00;100.00;100472.56;1031239;28;19921;-75
2021/12/11 00:19:37;;;;;;;;;;;;;;;-4.01;100.00;100474.34;1031608;28;19922;-75
2021/12/11 00:20:13;;;;;;;;;;;;;;;-4.00;100.00;100476.00;1028886;28;19929;-75
2021/12/11 00:20:50;;;;;;;;;;;;;;;-4.00;100.00;100478.59;1035636;28;19926;-76
2021/12/11 00:21:22;;;;;;;;;;;;;;;-4.03;100.00;100467.63;1034898;28;19922;-77
2021/12/11 00:21:54;;;;;;;;;;;;;;;-4.05;100.00;100481.59;1033142;28;20302;-78
2021/12/11 00:22:27;;;;;;;;;;;;;;;-4.06;100.00;100474.75;1033666;28;19922;-75
2021/12/11 00:22:59;;;;;;;;;;;;;;;-4.09;100.00;100469.81;1033697;28;19928;-78
2021/12/11 00:23:56;;;;;;;;;;;;;;;-4.10;100.00;100485.53;1035303;28;19928;-78
2021/12/11 00:24:30;;;;;;;;;;;;;;;-4.13;100.00;100486.59;1036712;28;19928;-77
2021/12/11 00:25:09;;;;;;;;;;;;;;;-4.15;100.00;100479.88;1032343;28;20296;-78
2021/12/11 00:25:41;;;;;;;;;;;;;;;-4.15;100.00;100485.09;1032341;28;20296;-78
2021/12/11 00:26:13;;;;;;;;;;;;;;;-4.15;100.00;100488.50;1027844;28;19961;-78
2021/12/11 00:26:47;;;;;;;;;;;;;;;-4.14;100.00;100481.53;1033129;28;19922;-78
2021/12/11 00:27:23;;;;;;;;;;;;;;;-4.14;100.00;100489.34;1033669;28;19929;-77
2021/12/11 00:28:03;;;;;;;;;;;;;;;-4.15;100.00;100495.50;1040582;28;20397;-78
2021/12/11 00:28:45;;;;;;;;;;;;;;;-4.15;100.00;100498.91;1037491;28;20273;-77
2021/12/11 00:29:19;;;;;;;;;;;;;;;-4.13;100.00;100501.38;1039555;28;19924;-77
2021/12/11 00:29:51;;;;;;;;;;;;;;;-4.12;100.00;100503.84;1031805;28;19922;-77
2021/12/11 00:30:24;;;;;;;;;;;;;;;-4.12;100.00;100501.25;1031145;28;20053;-77
2021/12/11 00:30:56;;;;;;;;;;;;;;;-4.11;100.00;100513.34;1036132;28;20047;-77
2021/12/11 00:31:28;;;;;;;;;;;;;;;-4.12;100.00;100501.25;1038618;28;19928;-77
2021/12/11 00:32:03;;;;;;;;;;;;;;;-4.12;100.00;100506.44;1033689;28;19929;-76
2021/12/11 00:32:34;;;;;;;;;;;;;;;-4.12;100.00;100505.63;1039278;28;19928;-77
2021/12/11 00:33:11;;;;;;;;;;;;;;;-4.12;100.00;100510.84;1036966;28;19929;-77
2021/12/11 00:33:42;;;;;;;;;;;;;;;-4.11;100.00;100507.28;1034194;28;19922;-77
2021/12/11 00:34:14;;;;;;;;;;;;;;;-4.12;100.00;100511.66;1039775;28;19920;-77
2021/12/11 00:34:49;;;;;;;;;;;;;;;-4.08;100.00;100513.06;1033313;28;19960;-74
2021/12/11 00:35:20;;;;;;;;;;;;;;;-4.08;100.00;100520.88;1036297;28;19921;-74
2021/12/11 00:35:52;;;;;;;;;;;;;;;-4.09;100.00;100511.41;1032007;28;19929;-74
2021/12/11 00:36:28;;;;;;;;;;;;;;;-4.10;100.00;100520.19;1032335;28;19922;-74
2021/12/11 00:37:01;;;;;;;;;;;;;;;-4.13;100.00;100520.41;1035717;28;20294;-74
2021/12/11 00:37:32;;;;;;;;;;;;;;;-4.16;100.00;100520.66;1031919;28;19932;-75
2021/12/11 00:38:06;;;;;;;;;;;;;;;-4.15;100.00;100517.13;1035257;28;19921;-73
2021/12/11 00:38:38;;;;;;;;;;;;;;;-4.10;100.00;100525.38;1035702;28;19948;-74
2021/12/11 00:39:12;;;;;;;;;;;;;;;-4.03;100.00;100522.25;1032850;28;19921;-75
2021/12/11 00:39:48;;;;;;;;;;;;;;;-3.96;100.00;100520.78;1036974;28;20369;-74
2021/12/11 00:40:21;;;;;;;;;;;;;;;-3.94;100.00;100521.47;1035535;28;19921;-74
2021/12/11 00:40:53;;;;;;;;;;;;;;;-3.97;100.00;100526.94;1037109;28;19944;-74
2021/12/11 00:41:25;;;;;;;;;;;;;;;-3.90;100.00;100517.63;1037164;28;19928;-73
2021/12/11 00:41:58;;;;;;;;;;;;;;;-3.86;100.00;100516.41;1035675;28;20323;-75
2021/12/11 00:42:34;;;;;;;;;;;;;;;-3.88;100.00;100528.75;1035994;28;19921;-74
2021/12/11 00:43:07;;;;;;;;;;;;;;;-3.91;100.00;100523.78;1035718;28;19929;-74
2021/12/11 00:43:40;;;;;;;;;;;;;;;-3.90;100.00;100528.03;1027813;28;19929;-75
2021/12/11 00:44:11;;;;;;;;;;;;;;;-3.90;100.00;100528.88;1027876;28;19925;-74
2021/12/11 00:44:44;;;;;;;;;;;;;;;-3.87;100.00;100530.38;1028163;28;19922;-74
2021/12/11 00:45:19;;;;;;;;;;;;;;;-3.80;100.00;100531.53;1029476;28;19932;-74
2021/12/11 00:45:51;;;;;;;;;;;;;;;-3.80;100.00;100536.72;1031708;28;20234;-73
2021/12/11 00:46:24;;;;;;;;;;;;;;;-3.80;100.00;100536.72;1031446;28;20008;-74
2021/12/11 00:47:04;;;;;;;;;;;;;;;-3.79;100.00;100534.00;1027884;28;20392;-74
2021/12/11 00:47:35;;;;;;;;;;;;;;;-3.77;100.00;100536.47;1030193;28;19922;-74
2021/12/11 00:48:08;;;;;;;;;;;;;;;-3.75;100.00;100534.56;1031751;28;20021;-74
2021/12/11 00:48:40;;;;;;;;;;;;;;;-3.68;100.00;100534.84;1033058;28;19922;-74
2021/12/11 00:49:14;;;;;;;;;;;;;;;-3.64;100.00;100537.03;1036204;28;19957;-74
2021/12/11 00:49:47;;;;;;;;;;;;;;;-3.68;100.00;100542.66;1038642;28;20286;-74
2021/12/11 00:50:20;;;;;;;;;;;;;;;-3.72;100.00;100531.69;1029715;28;19926;-74
2021/12/11 00:51:11;;;;;;;;;;;;;;;-3.74;100.00;100541.41;1028058;28;19937;-74
2021/12/11 00:51:50;;;;;;;;;;;;;;;-3.75;100.00;100539.75;1029909;28;19929;-73
2021/12/11 00:52:27;;;;;;;;;;;;;;;-3.75;100.00;100542.38;1034079;28;19937;-73
2021/12/11 00:53:05;;;;;;;;;;;;;;;-3.77;100.00;100539.91;1039618;28;20394;-74
2021/12/11 00:53:44;;;;;;;;;;;;;;;-3.74;100.00;100544.00;1035632;28;20283;-74
2021/12/11 00:54:17;;;;;;;;;;;;;;;-3.74;100.00;100552.63;1035773;28;19975;-74
2021/12/11 00:54:52;;;;;;;;;;;;;;;-3.77;100.00;100549.47;1035709;28;19929;-74
2021/12/11 00:55:32;;;;;;;;;;;;;;;-3.78;100.00;100550.44;1035453;28;19921;-74
2021/12/11 00:56:09;;;;;;;;;;;;;;;-3.79;100.00;100546.19;1035076;28;19921;-74
2021/12/11 00:56:41;;;;;;;;;;;;;;;-3.80;100.00;100562.75;1031194;28;19921;-73
2021/12/11 00:57:13;;;;;;;;;;;;;;;-3.81;100.00;100561.09;1031411;28;19937;-74
2021/12/11 00:57:46;;;;;;;;;;;;;;;-3.82;100.00;100564.66;1031946;28;19922;-74
2021/12/11 00:58:19;;;;;;;;;;;;;;;-3.86;100.00;100560.66;1035288;28;20279;-74
2021/12/11 00:58:51;;;;;;;;;;;;;;;-3.89;100.00;100560.91;1036427;28;19928;-75
2021/12/11 00:59:23;;;;;;;;;;;;;;;-3.92;100.00;100563.78;1035958;28;19928;-74
2021/12/11 00:59:58;;;;;;;;;;;;;;;-3.93;100.00;100567.34;1031269;28;19929;-74
2021/12/11 01:00:37;;;;;;;;;;;;;;;-3.95;100.00;100564.03;1031675;28;19928;-75
2021/12/11 01:01:11;;;;;;;;;;;;;;;-3.96;100.00;100572.78;1030545;28;19925;-74
2021/12/11 01:02:03;;;;;;;;;;;;;;;-3.95;100.00;100564.88;1031683;28;19922;-74
2021/12/11 01:02:34;;;;;;;;;;;;;;;-3.98;100.00;100564.31;1027902;28;19926;-75
2021/12/11 01:03:06;;;;;;;;;;;;;;;-4.00;100.00;100567.03;1031452;28;19928;-75
2021/12/11 01:03:40;;;;;;;;;;;;;;;-4.02;100.00;100565.50;1031012;28;19990;-73
2021/12/11 01:04:31;;;;;;;;;;;;;;;-4.02;100.00;100568.13;1028804;28;20601;-74
2021/12/11 01:05:05;;;;;;;;;;;;;;;-4.02;100.00;100574.16;1031298;28;19922;-74
2021/12/11 01:05:38;;;;;;;;;;;;;;;-4.01;100.00;100575.78;1027561;28;20008;-74
2021/12/11 01:06:12;;;;;;;;;;;;;;;-4.00;100.00;100571.41;1031096;28;20387;-74
2021/12/11 01:06:52;;;;;;;;;;;;;;;-3.99;100.00;100573.88;1028789;28;20265;-74
2021/12/11 01:07:29;;;;;;;;;;;;;;;-4.02;100.00;100573.31;1027561;28;19933;-74
2021/12/11 01:08:00;;;;;;;;;;;;;;;-4.08;100.00;100580.69;1026239;28;20381;-75
2021/12/11 01:08:33;;;;;;;;;;;;;;;-4.11;100.00;100580.94;1029651;28;19922;-75
2021/12/11 01:09:09;;;;;;;;;;;;;;;-4.12;100.00;100581.06;1033149;28;19922;-74
2021/12/11 01:09:41;;;;;;;;;;;;;;;-4.14;100.00;100573.38;1038146;28;19922;-75
2021/12/11 01:10:21;;;;;;;;;;;;;;;-4.15;100.00;100582.13;1035612;28;19944;-75
2021/12/11 01:10:57;;;;;;;;;;;;;;;-4.13;100.00;100582.00;1033633;28;19922;-74
2021/12/11 01:11:30;;;;;;;;;;;;;;;-4.16;100.00;100572.69;1036384;28;19922;-76
2021/12/11 01:12:14;;;;;;;;;;;;;;;-4.15;100.00;100578.72;1033688;28;19944;-77
2021/12/11 01:12:55;;;;;;;;;;;;;;;-4.17;100.00;100581.44;1036608;28;19921;-74
2021/12/11 01:13:30;;;;;;;;;;;;;;;-4.15;100.00;100584.72;1037314;28;20291;-75
2021/12/11 01:14:11;;;;;;;;;;;;;;;-4.16;100.00;100587.47;1035490;28;19928;-74
2021/12/11 01:14:53;;;;;;;;;;;;;;;-4.17;100.00;100586.63;1035702;28;19921;-75
2021/12/11 01:15:33;;;;;;;;;;;;;;;-4.16;100.00;100595.25;1037468;28;19921;-74
2021/12/11 01:16:11;;;;;;;;;;;;;;;-4.15;100.00;100595.13;1036385;28;19929;-74
2021/12/11 01:16:43;;;;;;;;;;;;;;;-4.14;100.00;100596.78;1031346;28;20408;-74
2021/12/11 01:17:21;;;;;;;;;;;;;;;-4.11;100.00;100595.69;1028967;28;20123;-74
2021/12/11 01:18:21;;;;;;;;;;;;;;;-4.10;100.00;100593.00;1031079;28;19921;-74
2021/12/11 01:18:56;;;;;;;;;;;;;;;-4.11;100.00;100593.09;1033091;28;19921;-74
2021/12/11 01:19:28;;;;;;;;;;;;;;;-4.12;100.00;100592.28;1034905;28;20304;-74
2021/12/11 01:20:03;;;;;;;;;;;;;;;-4.13;100.00;100598.44;1036060;28;19929;-74
2021/12/11 01:20:50;;;;;;;;;;;;;;;-4.12;100.00;100605.28;1032213;28;19928;-77
2021/12/11 01:22:00;;;;;;;;;;;;;;;-4.10;100.00;100605.19;1036040;28;19922;-75
2021/12/11 01:22:34;;;;;;;;;;;;;;;-4.07;100.00;100607.53;1039025;28;20169;-75
2021/12/11 01:23:15;;;;;;;;;;;;;;;-4.05;100.00;100611.66;1038460;28;19925;-74
2021/12/11 01:24:08;;;;;;;;;;;;;;;-4.05;100.00;100611.66;1034514;28;20007;-74
2021/12/11 01:24:44;;;;;;;;;;;;;;;-4.03;100.00;100615.88;1036218;28;19928;-75
2021/12/11 01:25:20;;;;;;;;;;;;;;;-4.03;100.00;100618.50;1036189;28;19944;-75
2021/12/11 01:25:51;;;;;;;;;;;;;;;-4.02;100.00;100627.94;1035798;28;20276;-74
2021/12/11 01:26:23;;;;;;;;;;;;;;;-4.03;100.00;100623.69;1035902;28;19925;-74
2021/12/11 01:26:55;;;;;;;;;;;;;;;-4.04;100.00;100628.06;1036320;28;19921;-74
2021/12/11 01:27:29;;;;;;;;;;;;;;;-4.05;100.00;100627.25;1033323;28;19933;-78
2021/12/11 01:28:01;;;;;;;;;;;;;;;-4.05;100.00;100626.44;1035787;28;19937;-77
2021/12/11 01:28:32;;;;;;;;;;;;;;;-4.06;100.00;100628.19;1029813;28;19928;-78
2021/12/11 01:29:05;;;;;;;;;;;;;;;-4.03;100.00;100628.91;1033089;28;20395;-78
2021/12/11 01:29:36;;;;;;;;;;;;;;;-4.02;100.00;100633.16;1032877;28;19922;-77
2021/12/11 01:30:10;;;;;;;;;;;;;;;-4.02;100.00;100630.53;1032464;28;19973;-78
2021/12/11 01:30:41;;;;;;;;;;;;;;;-4.01;100.00;100621.78;1032919;28;19928;-78
2021/12/11 01:31:14;;;;;;;;;;;;;;;-4.02;100.00;100635.75;1036214;28;20126;-77
2021/12/11 01:31:46;;;;;;;;;;;;;;;-4.00;100.00;100628.63;1036952;28;20427;-77
2021/12/11 01:32:17;;;;;;;;;;;;;;;-3.98;100.00;100632.75;1037039;28;19928;-78
2021/12/11 01:32:48;;;;;;;;;;;;;;;-3.96;100.00;100630.03;1041020;28;20354;-74
2021/12/11 01:33:20;;;;;;;;;;;;;;;-3.94;100.00;100643.72;1034514;28;19981;-74
2021/12/11 01:33:52;;;;;;;;;;;;;;;-3.95;100.00;100634.28;1031405;28;20280;-74
2021/12/11 01:34:24;;;;;;;;;;;;;;;-3.94;100.00;100636.75;1031466;28;19936;-74
2021/12/11 01:34:56;;;;;;;;;;;;;;;-3.91;100.00;100639.09;1031720;28;19929;-74
2021/12/11 01:35:28;;;;;;;;;;;;;;;-3.86;100.00;100641.31;1031422;28;20380;-74
2021/12/11 01:35:59;;;;;;;;;;;;;;;-3.84;100.00;100639.41;1027353;28;20302;-75
2021/12/11 01:36:31;;;;;;;;;;;;;;;-3.79;100.00;100647.66;1028356;28;19922;-74
2021/12/11 01:37:03;;;;;;;;;;;;;;;-3.78;100.00;100649.31;1031184;28;19929;-74
2021/12/11 01:37:35;;;;;;;;;;;;;;;-3.79;100.00;100647.66;1029834;28;19957;-74
2021/12/11 01:38:06;;;;;;;;;;;;;;;-3.79;100.00;100642.47;1032442;28;20291;-74
2021/12/11 01:38:38;;;;;;;;;;;;;;;-3.78;100.00;100649.31;1035316;28;19921;-74
2021/12/11 01:39:11;;;;;;;;;;;;;;;-3.77;100.00;100646.59;1031890;28;20020;-74
2021/12/11 01:39:42;;;;;;;;;;;;;;;-3.76;100.00;100658.63;1031594;28;19922;-75
2021/12/11 01:40:15;;;;;;;;;;;;;;;-3.74;100.00;100654.13;1031045;28;19922;-74
2021/12/11 01:40:49;;;;;;;;;;;;;;;-3.71;100.00;100642.63;1031741;28;19922;-74
2021/12/11 01:41:20;;;;;;;;;;;;;;;-3.74;100.00;100645.50;1033610;28;19921;-74
2021/12/11 01:41:52;;;;;;;;;;;;;;;-3.74;100.00;100648.94;1032340;28;19938;-75
2021/12/11 01:42:25;;;;;;;;;;;;;;;-3.72;100.00;100654.00;1031861;28;19922;-74
2021/12/11 01:42:58;;;;;;;;;;;;;;;-3.73;100.00;100652.34;1027770;28;19929;-75
2021/12/11 01:43:30;;;;;;;;;;;;;;;-3.73;100.00;100647.16;1027201;28;19922;-74
2021/12/11 01:44:07;;;;;;;;;;;;;;;-3.71;100.00;100649.63;1026102;28;19941;-74
2021/12/11 01:44:39;;;;;;;;;;;;;;;-3.76;100.00;100656.03;1029250;28;20293;-74
2021/12/11 01:45:11;;;;;;;;;;;;;;;-3.80;100.00;100656.44;1031219;28;19921;-74
2021/12/11 01:45:45;;;;;;;;;;;;;;;-3.77;100.00;100663.97;1032633;28;20500;-74
2021/12/11 01:46:19;;;;;;;;;;;;;;;-3.76;100.00;100663.84;1026856;28;19930;-74
2021/12/11 01:46:50;;;;;;;;;;;;;;;-3.74;100.00;100664.53;1028938;28;19929;-75
2021/12/11 01:47:26;;;;;;;;;;;;;;;-3.74;100.00;100655.91;1031309;28;20003;-75
2021/12/11 01:47:58;;;;;;;;;;;;;;;-3.73;100.00;100662.75;1032791;28;20052;-74
2021/12/11 01:48:30;;;;;;;;;;;;;;;-3.74;100.00;100669.75;1035872;28;19921;-74
2021/12/11 01:49:04;;;;;;;;;;;;;;;-3.75;100.00;100664.66;1034548;28;19922;-74
2021/12/11 01:49:36;;;;;;;;;;;;;;;-3.76;100.00;100671.66;1036910;28;20383;-75
2021/12/11 01:50:13;;;;;;;;;;;;;;;-3.78;100.00;100675.34;1035828;28;20443;-74
2021/12/11 01:50:46;;;;;;;;;;;;;;;-3.81;100.00;100676.41;1035730;28;19929;-74
2021/12/11 01:51:19;;;;;;;;;;;;;;;-3.86;100.00;100677.72;1035800;28;19921;-74
2021/12/11 01:51:53;;;;;;;;;;;;;;;-3.86;100.00;100672.53;1035439;28;19929;-74
2021/12/11 01:52:31;;;;;;;;;;;;;;;-3.87;100.00;100669.09;1035903;28;19921;-74
2021/12/11 01:53:04;;;;;;;;;;;;;;;-3.86;100.00;100672.53;1035266;28;19929;-75
2021/12/11 01:53:43;;;;;;;;;;;;;;;-3.82;100.00;100679.16;1035877;28;19921;-74
2021/12/11 01:54:18;;;;;;;;;;;;;;;-3.83;100.00;100683.53;1031105;28;20285;-74
2021/12/11 01:54:49;;;;;;;;;;;;;;;-3.86;100.00;100677.72;1033875;28;19922;-74
2021/12/11 01:55:22;;;;;;;;;;;;;;;-3.88;100.00;100671.84;1035255;28;19929;-74
2021/12/11 01:55:55;;;;;;;;;;;;;;;-3.89;100.00;100683.19;1031713;28;20299;-74
2021/12/11 01:56:27;;;;;;;;;;;;;;;-3.89;100.00;100683.19;1032553;28;19922;-74
2021/12/11 01:57:03;;;;;;;;;;;;;;;-3.89;100.00;100678.00;1031349;28;19928;-74
2021/12/11 01:57:34;;;;;;;;;;;;;;;-3.88;100.00;100679.63;1028817;28;20864;-74
2021/12/11 01:58:07;;;;;;;;;;;;;;;-3.87;100.00;100686.50;1029193;28;19945;-75
2021/12/11 01:58:39;;;;;;;;;;;;;;;-3.87;100.00;100687.31;1032461;28;19922;-74
2021/12/11 01:59:16;;;;;;;;;;;;;;;-3.86;100.00;100682.94;1036090;28;19922;-75
2021/12/11 01:59:53;;;;;;;;;;;;;;;-3.83;100.00;100687.91;1039455;28;20079;-75
2021/12/11 02:00:24;;;;;;;;;;;;;;;-3.87;100.00;100691.69;1035774;28;19928;-73
2021/12/11 02:00:57;;;;;;;;;;;;;;;-3.86;100.00;100685.53;1037492;28;19921;-74
2021/12/11 02:01:31;;;;;;;;;;;;;;;-3.87;100.00;100689.09;1035293;28;19921;-75
2021/12/11 02:02:10;;;;;;;;;;;;;;;-3.88;100.00;100690.03;1036689;28;19928;-74
2021/12/11 02:02:45;;;;;;;;;;;;;;;-3.88;100.00;100695.25;1035494;28;19937;-75
2021/12/11 02:03:21;;;;;;;;;;;;;;;-3.88;100.00;100697.84;1035921;28;19965;-74
2021/12/11 02:03:53;;;;;;;;;;;;;;;-3.88;100.00;100705.66;1035608;28;20388;-74
2021/12/11 02:04:25;;;;;;;;;;;;;;;-3.91;100.00;100700.72;1037053;28;19921;-74
2021/12/11 02:04:56;;;;;;;;;;;;;;;-3.89;100.00;100701.41;1034852;28;19921;-74
2021/12/11 02:05:29;;;;;;;;;;;;;;;-3.87;100.00;100708.13;1036107;28;19921;-74
2021/12/11 02:06:00;;;;;;;;;;;;;;;-3.83;100.00;100708.72;1031258;28;19922;-75
2021/12/11 02:06:33;;;;;;;;;;;;;;;-3.86;100.00;100698.53;1031809;28;19928;-76
2021/12/11 02:07:06;;;;;;;;;;;;;;;-3.89;100.00;100699.63;1032825;28;19928;-74
2021/12/11 02:07:40;;;;;;;;;;;;;;;-3.95;100.00;100709.72;1035203;28;20299;-74
2021/12/11 02:08:13;;;;;;;;;;;;;;;-3.96;100.00;100695.88;1038776;28;19931;-77
2021/12/11 02:08:44;;;;;;;;;;;;;;;-3.97;100.00;100709.03;1032985;28;19929;-75
2021/12/11 02:09:16;;;;;;;;;;;;;;;-4.00;100.00;100706.69;1035597;28;20387;-74
2021/12/11 02:09:55;;;;;;;;;;;;;;;-4.02;100.00;100709.41;1035051;28;19928;-75
2021/12/11 02:10:33;;;;;;;;;;;;;;;-4.03;100.00;100706.94;1034628;28;19928;-74
2021/12/11 02:11:05;;;;;;;;;;;;;;;-4.03;100.00;100709.53;1035292;28;19921;-74
2021/12/11 02:11:36;;;;;;;;;;;;;;;-4.07;100.00;100715.00;1035718;28;20314;-74
2021/12/11 02:12:10;;;;;;;;;;;;;;;-4.07;100.00;100715.00;1039092;28;19928;-75
2021/12/11 02:12:43;;;;;;;;;;;;;;;-4.08;100.00;100710.72;1036326;28;19921;-75
2021/12/11 02:13:22;;;;;;;;;;;;;;;-4.06;100.00;100714.03;1034196;28;20295;-75
2021/12/11 02:13:56;;;;;;;;;;;;;;;-4.08;100.00;100710.72;1031673;28;19922;-74
2021/12/11 02:14:34;;;;;;;;;;;;;;;-4.08;100.00;100718.53;1031567;28;19926;-74
2021/12/11 02:15:07;;;;;;;;;;;;;;;-4.07;100.00;100722.78;1034679;28;20441;-75
2021/12/11 02:15:46;;;;;;;;;;;;;;;-4.08;100.00;100720.31;1027238;28;19929;-74
2021/12/11 02:16:44;;;;;;;;;;;;;;;-4.13;100.00;100723.25;1027314;28;19928;-74
2021/12/11 02:17:24;;;;;;;;;;;;;;;-4.16;100.00;100726.13;1031027;28;20004;-75
2021/12/11 02:17:59;;;;;;;;;;;;;;;-4.19;100.00;100722.94;1035504;28;19921;-75
2021/12/11 02:18:36;;;;;;;;;;;;;;;-4.20;100.00;100727.31;1035117;28;19921;-74
2021/12/11 02:19:10;;;;;;;;;;;;;;;-4.22;100.00;100725.78;1035345;28;19925;-75
2021/12/11 02:19:43;;;;;;;;;;;;;;;-4.25;100.00;100724.28;1029590;28;19929;-74
2021/12/11 02:20:19;;;;;;;;;;;;;;;-4.28;100.00;100727.13;1029161;28;20292;-75
2021/12/11 02:20:55;;;;;;;;;;;;;;;-4.30;100.00;100731.63;1033074;28;19922;-75
2021/12/11 02:21:41;;;;;;;;;;;;;;;-4.32;100.00;100728.31;1036246;28;20291;-78
2021/12/11 02:22:16;;;;;;;;;;;;;;;-4.34;100.00;100724.19;1034073;28;20284;-77
2021/12/11 02:22:48;;;;;;;;;;;;;;;-4.34;100.00;100730.22;1035866;28;19922;-74
2021/12/11 02:23:19;;;;;;;;;;;;;;;-4.34;100.00;100725.03;1034918;28;19925;-74
2021/12/11 02:23:57;;;;;;;;;;;;;;;-4.35;100.00;100728.56;1031565;28;19922;-75
2021/12/11 02:24:33;;;;;;;;;;;;;;;-4.36;100.00;100724.31;1031716;28;19922;-74
2021/12/11 02:25:07;;;;;;;;;;;;;;;-4.37;100.00;100727.88;1033253;28;19929;-75
2021/12/11 02:25:41;;;;;;;;;;;;;;;-4.37;100.00;100730.47;1031343;28;19922;-74
2021/12/11 02:26:13;;;;;;;;;;;;;;;-4.38;100.00;100726.22;1033007;28;19921;-75
2021/12/11 02:26:45;;;;;;;;;;;;;;;-4.39;100.00;100733.16;1031656;28;19929;-74
2021/12/11 02:27:19;;;;;;;;;;;;;;;-4.39;100.00;100732.34;1031563;28;19926;-74
2021/12/11 02:27:56;;;;;;;;;;;;;;;-4.38;100.00;100734.03;1034282;28;19921;-74
2021/12/11 02:28:27;;;;;;;;;;;;;;;-4.38;100.00;100734.03;1030889;28;19929;-74
2021/12/11 02:29:07;;;;;;;;;;;;;;;-4.39;100.00;100737.53;1033549;28;19921;-74
2021/12/11 02:29:40;;;;;;;;;;;;;;;-4.40;100.00;100730.69;1031484;28;19921;-74
2021/12/11 02:30:18;;;;;;;;;;;;;;;-4.44;100.00;100737.91;1032593;28;19929;-75
2021/12/11 02:31:04;;;;;;;;;;;;;;;-4.45;100.00;100732.84;1030870;28;19922;-75
2021/12/11 02:31:36;;;;;;;;;;;;;;;-4.47;100.00;100739.94;1031364;28;19929;-74
2021/12/11 02:32:08;;;;;;;;;;;;;;;-4.45;100.00;100727.63;1032170;28;19932;-74
2021/12/11 02:32:41;;;;;;;;;;;;;;;-4.45;100.00;100735.44;1035466;28;19921;-74
2021/12/11 02:33:14;;;;;;;;;;;;;;;-4.47;100.00;100729.53;1035597;28;19922;-74
2021/12/11 02:33:52;;;;;;;;;;;;;;;-4.47;100.00;100739.94;1036001;28;19932;-74
2021/12/11 02:34:29;;;;;;;;;;;;;;;-4.43;100.00;100741.34;1035219;28;19928;-74
2021/12/11 02:35:11;;;;;;;;;;;;;;;-4.39;100.00;100733.16;1031127;28;19929;-74
2021/12/11 02:35:45;;;;;;;;;;;;;;;-4.33;100.00;100737.06;1031731;28;19922;-74
2021/12/11 02:36:22;;;;;;;;;;;;;;;-4.25;100.00;100737.28;1032680;28;19933;-74
2021/12/11 02:36:59;;;;;;;;;;;;;;;-4.22;100.00;100733.59;1030833;28;19922;-74
2021/12/11 02:37:36;;;;;;;;;;;;;;;-4.14;100.00;100747.63;1031265;28;19922;-74
2021/12/11 02:38:27;;;;;;;;;;;;;;;-4.20;100.00;100737.72;1031250;28;19995;-75
2021/12/11 02:39:00;;;;;;;;;;;;;;;-4.14;100.00;100744.19;1035279;28;19921;-75
2021/12/11 02:39:34;;;;;;;;;;;;;;;-4.16;100.00;100744.31;1035778;28;20039;-75
2021/12/11 02:40:05;;;;;;;;;;;;;;;-4.21;100.00;100738.66;1037352;28;19921;-75
2021/12/11 02:40:39;;;;;;;;;;;;;;;-4.25;100.00;100750.28;1035578;28;19928;-74
2021/12/11 02:41:32;;;;;;;;;;;;;;;-4.23;100.00;100748.38;1035599;28;19928;-75
2021/12/11 02:42:07;;;;;;;;;;;;;;;-4.18;100.00;100748.00;1031468;28;20288;-75
2021/12/11 02:42:41;;;;;;;;;;;;;;;-4.20;100.00;100748.13;1031308;28;19922;-74
2021/12/11 02:43:31;;;;;;;;;;;;;;;-4.23;100.00;100744.94;1034212;28;19921;-75
2021/12/11 02:44:08;;;;;;;;;;;;;;;-4.27;100.00;100752.16;1035710;28;19922;-74
2021/12/11 02:44:44;;;;;;;;;;;;;;;-4.30;100.00;100756.78;1035874;28;19922;-74
2021/12/11 02:45:20;;;;;;;;;;;;;;;-4.33;100.00;100755.28;1036215;28;19921;-74
2021/12/11 02:45:55;;;;;;;;;;;;;;;-4.35;100.00;100759.78;1031922;28;19929;-74
2021/12/11 02:46:55;;;;;;;;;;;;;;;-4.38;100.00;100760.84;1028262;28;19978;-75
2021/12/11 02:47:28;;;;;;;;;;;;;;;-4.41;100.00;100761.06;1027175;28;20308;-74
2021/12/11 02:48:11;;;;;;;;;;;;;;;-4.41;100.00;100760.22;1032577;28;19928;-75
2021/12/11 02:48:46;;;;;;;;;;;;;;;-4.42;100.00;100761.19;1035916;28;19928;-75
2021/12/11 02:49:23;;;;;;;;;;;;;;;-4.43;100.00;100759.53;1035674;28;19921;-75
2021/12/11 02:50:04;;;;;;;;;;;;;;;-4.41;100.00;100763.66;1036249;28;20932;-74
2021/12/11 02:50:41;;;;;;;;;;;;;;;-4.39;100.00;100764.34;1037703;28;19929;-77
2021/12/11 02:51:15;;;;;;;;;;;;;;;-4.38;100.00;100760.84;1037630;28;20028;-78
2021/12/11 02:51:50;;;;;;;;;;;;;;;-4.39;100.00;100766.13;1032962;28;19922;-78
2021/12/11 02:52:41;;;;;;;;;;;;;;;-4.40;100.00;100765.31;1033272;28;19922;-75
2021/12/11 02:53:32;;;;;;;;;;;;;;;-4.40;100.00;100761.88;1032290;28;19922;-73
2021/12/11 02:54:18;;;;;;;;;;;;;;;-4.36;100.00;100769.34;1029512;28;20315;-74
2021/12/11 02:54:56;;;;;;;;;;;;;;;-4.34;100.00;100769.22;1032660;28;19933;-74
2021/12/11 02:55:30;;;;;;;;;;;;;;;-4.31;100.00;100771.56;1031977;28;19944;-74
2021/12/11 02:56:04;;;;;;;;;;;;;;;-4.32;100.00;100775.13;1038989;28;19920;-74
2021/12/11 02:56:43;;;;;;;;;;;;;;;-4.30;100.00;100772.41;1036367;28;19922;-74
2021/12/11 02:57:19;;;;;;;;;;;;;;;-4.31;100.00;100776.78;1038961;28;19921;-74
2021/12/11 02:57:52;;;;;;;;;;;;;;;-4.32;100.00;100763.91;1040480;28;19921;-74
2021/12/11 02:58:25;;;;;;;;;;;;;;;-4.32;100.00;100767.31;1040233;28;19928;-74
2021/12/11 02:58:59;;;;;;;;;;;;;;;-4.30;100.00;100768.03;1040482;28;19921;-74
2021/12/11 02:59:32;;;;;;;;;;;;;;;-4.32;100.00;100775.13;1040757;28;19928;-74